Hovedside
METAR-TAF:

METAR-TAF

Lufthavner :

Ronneby, Sverige

Ronneby lufthavn

breddegrad: 56-16N, lengdegrad: 015-17E, høyde over havet: 58 m

Gjeldene værobservasjon

Denne rapporten ble laget for 21 minutter siden, klokken 13:20 UTC
Vind 14 kt fra Nord-nordøst
Temperatur -4°C
Luftfuktighet 74%
Trykk 1035 hPa
Sikt 10 km eller mer
Brutte skyer i en høyde av 2400 ft, Tårnskyer (cumulus).
lette snøbyger

METAR: ESDF 251320Z 03014KT 9999 -SHSN BKN024TCU M04/M08 Q1035

Tid: 14:41 (13:41 UTC)

Varsel

Denne rapporten ble laget for 2 timer og 11 minutter siden, klokken 11:30 UTC
Varsel gyldig fra 25. klokken 12 UTC til 25. klokken 21 UTC
Vind 12 kt fra Nord-nordøst
Sikt 10 km eller mer
Spredte skyer i en høyde av 2000 ft, Tårnskyer (cumulus).
Sannsynlighet 40%
fra 25. klokken 12 UTC til 25. klokken 21 UTC
Sikt: 2500 m
i en høyde av 1400 ft
lette snøbyger

TAF: ESDF 251130Z 2512/2521 02012KT 9999 SCT020TCU PROB40 2512/2521 2500 -SHSN VV014

Værobservasjoner og værvarsel for over 4000 flyplasser (METAR- og TAF-rapporter).

Tilgjengelige stasjoner er representert av de røde og gule prikkene på kartet.

Hold musepekeren over prikken for å se navnet på stasjonen.

Klikk så for å se værobservasjoner og -varsler.

For å forandre kartet kan du klikke på den grønne knappen med svart kryss for å zoome inn, på den grønne knappen med strek for å zoome ut, eller på de grønne pilene for å se tilstøtende kart.


METAR-TAF: